Time;durP1;ratioP1;P1;durP2;ratioP2;P2;SDS_P1;SDS_P2;PMS_P1;PMS_P2;Temp;Humidity;BMP_temperature;BMP_pressure;BME280_temperature;BME280_humidity;BME280_pressure;Samples;Min_cycle;Max_cycle;Signal;HPM_P1;HPM_P2
2023/07/10 00:01:04;;;;;;;6.35;3.88;;;;;;;30.38;52.88;99985.16;5055695;28;20025;-83
2023/07/10 00:03:31;;;;;;;9.63;4.53;;;;;;;30.37;52.98;99983.44;5055926;28;20025;-84
2023/07/10 00:05:58;;;;;;;8.48;4.15;;;;;;;30.38;52.89;99989.69;5056247;28;20037;-86
2023/07/10 00:08:24;;;;;;;6.07;3.90;;;;;;;30.38;52.93;99995.06;5056433;28;20108;-85
2023/07/10 00:10:50;;;;;;;6.22;3.80;;;;;;;30.36;53.06;99986.31;5056035;28;20063;-86
2023/07/10 00:13:21;;;;;;;7.20;4.32;;;;;;;30.32;53.06;99980.34;5056156;28;20028;-85
2023/07/10 00:15:48;;;;;;;7.72;4.55;;;;;;;30.32;52.97;99979.50;5055733;28;20028;-84
2023/07/10 00:18:16;;;;;;;7.05;4.25;;;;;;;30.32;52.97;99983.03;5055421;28;20021;-84
2023/07/10 00:20:43;;;;;;;6.65;4.18;;;;;;;30.31;53.02;99983.19;5056741;28;20041;-85
2023/07/10 00:23:09;;;;;;;7.78;3.95;;;;;;;30.30;53.14;99973.41;5055533;28;20793;-82
2023/07/10 00:25:35;;;;;;;6.38;3.80;;;;;;;30.29;53.29;99975.25;5055977;28;20104;-85
2023/07/10 00:28:01;;;;;;;7.75;4.68;;;;;;;30.27;53.04;99972.69;5055851;28;20104;-84
2023/07/10 00:30:26;;;;;;;7.07;4.35;;;;;;;30.28;53.21;99987.00;5055649;28;20027;-84
2023/07/10 00:32:54;;;;;;;7.05;3.85;;;;;;;30.26;53.18;99987.16;5055006;28;20537;-84
2023/07/10 00:35:26;;;;;;;6.22;4.18;;;;;;;30.26;53.21;99987.16;5055542;28;20102;-83
2023/07/10 00:38:04;;;;;;;7.03;4.07;;;;;;;30.25;53.06;99982.75;5055691;28;20028;-85
2023/07/10 00:40:32;;;;;;;8.07;4.03;;;;;;;30.23;53.07;99971.28;5055416;28;20036;-86
2023/07/10 00:43:13;;;;;;;7.00;4.00;;;;;;;30.23;52.96;99975.81;5055796;28;20017;-85
2023/07/10 00:45:38;;;;;;;7.38;4.13;;;;;;;30.21;53.18;99978.63;5054278;28;20159;-86
2023/07/10 00:48:29;;;;;;;6.30;3.72;;;;;;;30.21;53.07;99978.63;5055502;28;20533;-86
2023/07/10 00:50:57;;;;;;;5.60;4.00;;;;;;;30.20;52.81;99979.63;5055040;28;20109;-85
2023/07/10 00:53:36;;;;;;;7.45;4.15;;;;;;;30.19;52.99;99977.94;5054615;28;20083;-84
2023/07/10 00:56:02;;;;;;;6.53;4.00;;;;;;;30.17;52.94;99971.88;5054003;28;20028;-84
2023/07/10 00:58:37;;;;;;;5.47;3.92;;;;;;;30.16;52.82;99970.13;5054671;28;20041;-85
2023/07/10 01:01:10;;;;;;;6.68;3.72;;;;;;;30.15;52.92;99971.13;5054565;28;20098;-85
2023/07/10 01:03:37;;;;;;;5.90;3.80;;;;;;;30.14;52.82;99972.13;5055155;28;20021;-86
2023/07/10 01:06:09;;;;;;;7.32;3.72;;;;;;;30.14;52.89;99966.75;5054982;28;20191;-86
2023/07/10 01:08:39;;;;;;;5.55;3.40;;;;;;;30.12;52.65;99966.88;5053639;28;20492;-86
2023/07/10 01:11:04;;;;;;;6.47;3.45;;;;;;;30.11;52.78;99962.50;5054471;28;20096;-85
2023/07/10 01:13:31;;;;;;;6.20;3.67;;;;;;;30.10;52.65;99959.94;5054009;28;20108;-84
2023/07/10 01:15:56;;;;;;;8.13;3.90;;;;;;;30.09;52.69;99958.25;5054038;28;20029;-86
2023/07/10 01:18:24;;;;;;;7.18;3.63;;;;;;;30.07;52.47;99958.34;5055213;28;20029;-86
2023/07/10 01:21:18;;;;;;;6.00;3.58;;;;;;;30.07;52.64;99961.03;5055074;28;20025;-85
2023/07/10 01:23:43;;;;;;;5.50;3.28;;;;;;;30.06;52.55;99964.72;5053421;28;20044;-83
2023/07/10 01:26:09;;;;;;;5.55;3.15;;;;;;;30.05;52.52;99957.66;5053191;28;20024;-84
2023/07/10 01:28:34;;;;;;;6.50;3.67;;;;;;;30.04;52.45;99960.47;5054107;28;20095;-84
2023/07/10 01:31:03;;;;;;;5.38;3.20;;;;;;;30.04;52.55;99955.09;5054253;28;20381;-83
2023/07/10 01:33:35;;;;;;;9.07;4.13;;;;;;;30.02;52.23;99964.16;5053233;28;20032;-85
2023/07/10 01:36:02;;;;;;;5.53;3.33;;;;;;;30.01;52.29;99961.63;5053185;28;20030;-86
2023/07/10 01:38:36;;;;;;;6.00;3.20;;;;;;;30.01;52.17;99958.94;5054673;28;20031;-84
2023/07/10 01:41:14;;;;;;;5.57;3.30;;;;;;;29.98;52.15;99962.75;5054213;28;20025;-84
2023/07/10 01:43:39;;;;;;;5.57;3.67;;;;;;;29.97;52.04;99961.06;5054292;28;20083;-86
2023/07/10 01:46:19;;;;;;;5.03;3.30;;;;;;;29.97;52.32;99961.06;5054228;28;20033;-83
2023/07/10 01:48:46;;;;;;;4.95;3.42;;;;;;;29.97;52.33;99960.22;5054155;28;20044;-84
2023/07/10 01:51:11;;;;;;;6.00;3.30;;;;;;;29.96;52.13;99969.25;5052516;28;20017;-84
2023/07/10 01:53:36;;;;;;;5.50;3.50;;;;;;;29.93;52.24;99956.97;5053589;28;20028;-83
2023/07/10 01:56:02;;;;;;;5.53;3.40;;;;;;;29.95;52.16;99954.09;5053503;28;20017;-82
2023/07/10 01:58:27;;;;;;;6.82;3.70;;;;;;;29.94;52.06;99961.34;5052925;28;20124;-83
2023/07/10 02:00:53;;;;;;;5.78;3.38;;;;;;;29.92;51.99;99960.63;5053512;28;20029;-83
2023/07/10 02:03:18;;;;;;;7.53;3.60;;;;;;;29.91;51.82;99958.94;5052618;28;20025;-83
2023/07/10 02:05:43;;;;;;;5.72;3.17;;;;;;;29.91;51.84;99956.25;5053482;28;20473;-84
2023/07/10 02:08:09;;;;;;;7.28;3.38;;;;;;;29.90;51.88;99951.84;5052446;28;20477;-84
2023/07/10 02:10:34;;;;;;;5.22;3.20;;;;;;;29.91;51.80;99955.41;5053660;28;20021;-84
2023/07/10 02:13:00;;;;;;;5.13;3.20;;;;;;;29.90;51.81;99959.91;5052854;28;20074;-84
2023/07/10 02:15:25;;;;;;;6.00;3.50;;;;;;;29.90;52.09;99951.00;5053581;28;20021;-83
2023/07/10 02:17:51;;;;;;;4.80;2.95;;;;;;;29.88;51.76;99945.78;5053713;28;20409;-84
2023/07/10 02:20:17;;;;;;;5.53;3.15;;;;;;;29.87;51.98;99944.06;5053771;28;20052;-85
2023/07/10 02:22:42;;;;;;;6.45;3.50;;;;;;;29.86;51.78;99950.41;5053881;28;20096;-85
2023/07/10 02:25:08;;;;;;;5.30;2.75;;;;;;;29.85;51.86;99946.91;5053485;28;20044;-86
2023/07/10 02:27:33;;;;;;;6.72;3.08;;;;;;;29.85;52.02;99944.22;5053538;28;20041;-85
2023/07/10 02:29:58;;;;;;;5.60;3.03;;;;;;;29.84;51.50;99944.34;5053795;28;20525;-84
2023/07/10 02:32:24;;;;;;;5.53;3.20;;;;;;;29.84;51.50;99944.34;5053833;28;20036;-84
2023/07/10 02:34:49;;;;;;;6.70;3.45;;;;;;;29.82;51.51;99947.16;5053819;28;20017;-87
2023/07/10 02:37:15;;;;;;;5.90;3.20;;;;;;;29.81;51.58;99950.84;5053498;28;20029;-85
2023/07/10 02:39:40;;;;;;;6.05;3.20;;;;;;;29.81;51.65;99944.63;5053852;28;20104;-85
2023/07/10 02:42:06;;;;;;;5.70;3.35;;;;;;;29.82;51.45;99936.41;5052199;28;20028;-85
2023/07/10 02:44:31;;;;;;;7.40;3.30;;;;;;;29.80;51.60;99942.91;5053711;28;20035;-86
2023/07/10 02:46:56;;;;;;;5.05;3.20;;;;;;;29.80;51.75;99943.78;5053711;28;20040;-84
2023/07/10 02:49:22;;;;;;;6.03;2.95;;;;;;;29.79;51.59;99936.72;5052224;28;20056;-86
2023/07/10 02:51:47;;;;;;;5.38;2.78;;;;;;;29.80;51.57;99932.16;5053189;28;20100;-82
2023/07/10 02:54:13;;;;;;;6.85;3.47;;;;;;;29.78;51.54;99934.97;5053119;28;20025;-86
2023/07/10 02:56:39;;;;;;;6.18;3.05;;;;;;;29.77;51.56;99937.84;5052866;28;20435;-84
2023/07/10 02:59:04;;;;;;;6.90;3.20;;;;;;;29.76;51.49;99936.16;5052765;28;20040;-85
2023/07/10 03:01:30;;;;;;;6.63;3.28;;;;;;;29.76;51.21;99925.38;5068483;28;20021;-86
2023/07/10 03:03:55;;;;;;;5.78;2.88;;;;;;;29.74;51.53;99926.34;5053034;28;20021;-85
2023/07/10 03:06:23;;;;;;;4.88;2.83;;;;;;;29.74;51.31;99928.22;5052911;28;20021;-84
2023/07/10 03:08:48;;;;;;;6.20;3.03;;;;;;;29.73;50.89;99935.41;5068471;28;20481;-85
2023/07/10 03:11:15;;;;;;;5.60;3.25;;;;;;;29.72;51.16;99925.66;5052834;28;20025;-85
2023/07/10 03:13:41;;;;;;;4.85;2.70;;;;;;;29.71;51.35;99925.78;5053124;28;20031;-86
2023/07/10 03:16:09;;;;;;;5.07;2.50;;;;;;;29.71;51.27;99932.03;5052980;28;20021;-84
2023/07/10 03:18:36;;;;;;;6.05;2.65;;;;;;;29.71;51.22;99934.72;5052488;28;20021;-84
2023/07/10 03:21:02;;;;;;;6.50;3.20;;;;;;;29.69;51.24;99928.59;5052803;28;20083;-86
2023/07/10 03:23:27;;;;;;;5.65;2.63;;;;;;;29.69;51.02;99931.28;5052827;28;20420;-84
2023/07/10 03:25:52;;;;;;;5.38;2.50;;;;;;;29.69;51.20;99928.59;5051915;28;20040;-83
2023/07/10 03:28:18;;;;;;;6.55;2.58;;;;;;;29.69;51.00;99928.59;5052653;28;20021;-83
2023/07/10 03:30:44;;;;;;;5.63;2.85;;;;;;;29.68;51.05;99923.38;5052912;28;20021;-85
2023/07/10 03:33:12;;;;;;;6.30;3.03;;;;;;;29.65;51.01;99919.16;5053089;28;20036;-86
2023/07/10 03:35:37;;;;;;;4.20;2.47;;;;;;;29.68;51.12;99926.09;5053027;28;20029;-86
2023/07/10 03:38:03;;;;;;;6.88;2.50;;;;;;;29.64;51.18;99917.44;5052608;28;20064;-85
2023/07/10 03:40:28;;;;;;;5.68;2.75;;;;;;;29.65;50.67;99924.53;5052528;28;20420;-84
2023/07/10 03:42:53;;;;;;;4.70;2.10;;;;;;;29.65;50.75;99929.03;5052855;28;20025;-86
2023/07/10 03:45:19;;;;;;;7.10;2.97;;;;;;;29.64;50.78;99928.22;5052788;28;20489;-86
2023/07/10 03:47:44;;;;;;;5.50;2.90;;;;;;;29.63;51.00;99926.47;5052518;28;20067;-85
2023/07/10 03:50:10;;;;;;;4.55;2.78;;;;;;;29.63;50.88;99931.03;5052568;28;20389;-86
2023/07/10 03:52:35;;;;;;;4.43;2.60;;;;;;;29.62;50.84;99932.84;5052549;28;20477;-84
2023/07/10 03:55:01;;;;;;;4.88;2.63;;;;;;;29.60;50.51;99924.91;5052272;28;20021;-86
2023/07/10 03:57:26;;;;;;;4.93;2.58;;;;;;;29.59;50.72;99925.09;5039263;28;20036;-85
2023/07/10 03:59:52;;;;;;;5.05;2.75;;;;;;;29.58;50.85;99924.22;5032796;28;20037;-86
2023/07/10 04:02:18;;;;;;;6.03;2.90;;;;;;;29.57;50.70;99924.34;5033113;28;20026;-87
2023/07/10 04:04:43;;;;;;;6.18;3.15;;;;;;;29.57;50.51;99935.97;5051893;28;20036;-86
2023/07/10 04:07:09;;;;;;;5.07;2.47;;;;;;;29.58;50.63;99923.38;5052157;28;20512;-86
2023/07/10 04:09:34;;;;;;;5.50;2.42;;;;;;;29.57;50.63;99927.03;5050750;28;20119;-85
2023/07/10 04:11:59;;;;;;;4.90;2.58;;;;;;;29.57;50.58;99932.41;5051076;28;20477;-84
2023/07/10 04:14:25;;;;;;;4.82;2.63;;;;;;;29.55;50.32;99931.72;5052413;28;20029;-84
2023/07/10 04:16:53;;;;;;;5.20;2.42;;;;;;;29.54;50.62;99932.72;5052483;28;20025;-86
2023/07/10 04:19:20;;;;;;;4.63;2.47;;;;;;;29.56;50.42;99936.09;5052747;28;20025;-87
2023/07/10 04:21:46;;;;;;;5.20;2.72;;;;;;;29.53;50.63;99931.00;5052699;28;20025;-88
2023/07/10 04:24:12;;;;;;;5.53;3.00;;;;;;;29.53;50.70;99934.53;5052221;28;20064;-86
2023/07/10 04:26:38;;;;;;;5.32;2.53;;;;;;;29.53;50.47;99936.41;5052202;28;20060;-88
2023/07/10 04:29:06;;;;;;;6.03;2.78;;;;;;;29.52;50.53;99930.16;5052678;28;20068;-86
2023/07/10 04:31:32;;;;;;;4.60;2.22;;;;;;;29.52;50.23;99934.66;5054623;28;20108;-87
2023/07/10 04:33:58;;;;;;;5.72;2.50;;;;;;;29.52;50.41;99931.97;5056319;28;20025;-85
2023/07/10 04:36:24;;;;;;;6.20;2.60;;;;;;;29.50;50.35;99934.81;5055263;28;20074;-84
2023/07/10 04:38:50;;;;;;;5.93;2.53;;;;;;;29.50;50.47;99936.66;5055344;28;20036;-86
2023/07/10 04:41:20;;;;;;;5.30;2.92;;;;;;;29.50;50.26;99931.28;5055790;28;20025;-86
2023/07/10 04:43:47;;;;;;;4.38;2.40;;;;;;;29.50;50.59;99936.66;5055476;28;20075;-85
2023/07/10 04:46:14;;;;;;;5.40;2.78;;;;;;;29.50;50.57;99931.28;5055281;28;20120;-84
2023/07/10 04:48:42;;;;;;;5.10;2.78;;;;;;;29.48;50.32;99924.22;5055135;28;20035;-83
2023/07/10 04:51:09;;;;;;;4.90;2.97;;;;;;;29.46;50.16;99936.91;5054776;28;20172;-84
2023/07/10 04:53:35;;;;;;;5.40;2.97;;;;;;;29.47;50.08;99933.22;5055258;28;20021;-84
2023/07/10 04:56:04;;;;;;;4.85;2.63;;;;;;;29.46;50.38;99942.28;5055631;28;20037;-84
2023/07/10 04:58:29;;;;;;;5.55;2.70;;;;;;;29.45;50.43;99932.50;5055646;28;20057;-88
2023/07/10 05:00:58;;;;;;;5.20;2.75;;;;;;;29.45;50.25;99940.56;5055689;28;20029;-85
2023/07/10 05:03:24;;;;;;;6.30;2.80;;;;;;;29.44;50.32;99938.88;5055272;28;20527;-83
2023/07/10 05:05:54;;;;;;;6.03;2.50;;;;;;;29.44;50.28;99936.19;5054814;28;20485;-84
2023/07/10 05:08:21;;;;;;;6.20;2.97;;;;;;;29.44;50.17;99936.19;5055588;28;20135;-86
2023/07/10 05:10:50;;;;;;;5.10;2.88;;;;;;;29.44;50.38;99938.88;5055249;28;20112;-84
2023/07/10 05:13:18;;;;;;;6.53;2.80;;;;;;;29.43;49.88;99937.19;5055132;28;20025;-83
2023/07/10 05:15:45;;;;;;;5.70;2.60;;;;;;;29.43;50.24;99942.56;5055057;28;20497;-83
2023/07/10 05:18:11;;;;;;;5.57;2.88;;;;;;;29.42;49.97;99940.84;5054732;28;20021;-83
2023/07/10 05:20:38;;;;;;;4.95;3.08;;;;;;;29.42;50.01;99935.47;5054442;28;20021;-86
2023/07/10 05:23:04;;;;;;;4.63;2.67;;;;;;;29.44;50.18;99933.50;5054661;28;20036;-85
2023/07/10 05:25:29;;;;;;;6.07;2.80;;;;;;;29.44;50.02;99930.81;5054335;28;20404;-86
2023/07/10 05:27:54;;;;;;;6.35;2.80;;;;;;;29.45;50.04;99929.81;5053575;28;20079;-85
2023/07/10 05:30:20;;;;;;;6.47;2.65;;;;;;;29.44;50.11;99936.19;5054531;28;20482;-86
2023/07/10 05:32:45;;;;;;;5.15;3.08;;;;;;;29.44;50.09;99938.88;5054564;28;20033;-86
2023/07/10 05:35:10;;;;;;;4.30;2.75;;;;;;;29.43;50.03;99934.50;5054481;28;20462;-86
2023/07/10 05:37:36;;;;;;;4.68;2.75;;;;;;;29.44;50.20;99938.03;5054978;28;20025;-87
2023/07/10 05:40:01;;;;;;;4.72;2.95;;;;;;;29.44;50.08;99932.66;5055231;28;20481;-87
2023/07/10 05:42:27;;;;;;;6.15;2.80;;;;;;;29.42;50.17;99935.47;5054928;28;20052;-86
2023/07/10 05:44:52;;;;;;;5.85;2.88;;;;;;;29.42;49.98;99935.47;5054654;28;20029;-85
2023/07/10 05:47:18;;;;;;;6.78;2.97;;;;;;;29.43;50.00;99936.31;5054941;28;20032;-86
2023/07/10 05:49:43;;;;;;;5.72;2.90;;;;;;;29.41;50.12;99941.84;5053245;28;20490;-86
2023/07/10 05:52:08;;;;;;;4.70;2.75;;;;;;;29.43;50.19;99942.56;5053215;28;20043;-88
2023/07/10 05:54:34;;;;;;;6.15;2.90;;;;;;;29.40;50.19;99937.47;5054987;28;20021;-87
2023/07/10 05:56:59;;;;;;;5.85;2.72;;;;;;;29.42;50.23;99935.47;5054743;28;20025;-86
2023/07/10 05:59:25;;;;;;;6.53;2.60;;;;;;;29.43;50.31;99936.31;5053099;28;20041;-86
2023/07/10 06:01:50;;;;;;;6.45;3.00;;;;;;;29.42;49.79;99924.72;5054329;28;20085;-85
2023/07/10 06:04:16;;;;;;;4.97;2.70;;;;;;;29.42;49.99;99930.09;5054199;28;20046;-84
2023/07/10 06:06:41;;;;;;;4.72;2.30;;;;;;;29.43;49.89;99928.25;5054083;28;20032;-84
2023/07/10 06:09:07;;;;;;;5.28;2.65;;;;;;;29.44;49.97;99929.97;5052870;28;20016;-85
2023/07/10 06:11:32;;;;;;;7.43;2.83;;;;;;;29.44;49.72;99932.66;5053858;28;20471;-84
2023/07/10 06:13:58;;;;;;;5.72;3.03;;;;;;;29.43;49.97;99936.31;5053659;28;20029;-81
2023/07/10 06:16:23;;;;;;;4.75;2.45;;;;;;;29.41;49.81;99933.78;5054276;28;20083;-85
2023/07/10 06:18:49;;;;;;;4.75;2.70;;;;;;;29.41;49.88;99933.78;5053637;28;20187;-84
2023/07/10 06:21:14;;;;;;;5.60;2.55;;;;;;;29.41;50.06;99932.94;5053906;28;20020;-84
2023/07/10 06:23:40;;;;;;;5.22;2.55;;;;;;;29.41;49.75;99931.09;5053769;28;20110;-85
2023/07/10 06:26:06;;;;;;;5.78;3.13;;;;;;;29.40;49.66;99932.09;5053095;28;20510;-82
2023/07/10 06:28:34;;;;;;;4.80;3.00;;;;;;;29.41;49.92;99932.94;5053320;28;20029;-84
2023/07/10 06:31:06;;;;;;;7.80;2.90;;;;;;;29.42;49.94;99930.09;5053441;28;20104;-83
2023/07/10 06:33:32;;;;;;;5.55;2.80;;;;;;;29.44;49.98;99921.91;5052573;28;20037;-84
2023/07/10 06:35:59;;;;;;;5.70;2.90;;;;;;;29.42;49.77;99935.47;5052990;28;20513;-84
2023/07/10 06:38:25;;;;;;;4.82;2.45;;;;;;;29.43;49.59;99926.44;5051738;28;20112;-84
2023/07/10 06:40:51;;;;;;;6.00;2.53;;;;;;;29.42;49.79;99931.94;5053228;28;20051;-87
2023/07/10 06:43:17;;;;;;;8.55;2.70;;;;;;;29.43;49.99;99926.44;5052888;28;20032;-88
2023/07/10 06:45:43;;;;;;;5.30;2.78;;;;;;;29.43;49.74;99923.75;5052881;28;20051;-87
2023/07/10 06:48:09;;;;;;;5.13;2.38;;;;;;;29.43;49.92;99937.19;5051823;28;20029;-85
2023/07/10 06:50:35;;;;;;;6.60;3.05;;;;;;;29.42;50.05;99935.47;5054316;28;20108;-87
2023/07/10 06:53:00;;;;;;;3.97;2.40;;;;;;;29.42;49.95;99937.31;5055052;28;20036;-86
2023/07/10 06:55:26;;;;;;;4.30;2.40;;;;;;;29.41;50.02;99939.16;5054700;28;20036;-88
2023/07/10 06:57:51;;;;;;;5.22;2.60;;;;;;;29.41;50.28;99938.31;5054702;28;20091;-89
2023/07/10 07:00:18;;;;;;;4.20;2.35;;;;;;;29.41;50.54;99943.69;5054990;28;20048;-88
2023/07/10 07:02:43;;;;;;;5.95;2.50;;;;;;;29.40;50.20;99945.53;5055472;28;20021;-86
2023/07/10 07:05:09;;;;;;;4.90;2.47;;;;;;;29.41;50.31;99939.16;5054674;28;20025;-89
2023/07/10 07:07:36;;;;;;;5.22;2.60;;;;;;;29.41;50.38;99933.78;5053197;28;20566;-87
2023/07/10 07:10:01;;;;;;;5.45;2.42;;;;;;;29.40;50.42;99939.28;5054338;28;20025;-88
2023/07/10 07:12:27;;;;;;;3.92;2.35;;;;;;;29.40;50.97;99932.09;5052323;28;20029;-89
2023/07/10 07:14:53;;;;;;;5.07;2.40;;;;;;;29.40;50.60;99929.41;5053162;28;20393;-86
2023/07/10 07:17:18;;;;;;;4.60;2.35;;;;;;;29.40;50.55;99937.47;5053348;28;20048;-89
2023/07/10 07:19:46;;;;;;;4.47;2.33;;;;;;;29.41;50.40;99928.41;5053657;28;20443;-88
2023/07/10 07:22:12;;;;;;;4.82;2.53;;;;;;;29.40;50.29;99934.78;5053697;28;20067;-87
2023/07/10 07:24:37;;;;;;;4.10;2.20;;;;;;;29.40;50.50;99932.09;5053003;28;20112;-85
2023/07/10 07:27:03;;;;;;;6.18;2.78;;;;;;;29.41;50.36;99933.78;5053100;28;20035;-87
2023/07/10 07:29:28;;;;;;;5.15;2.65;;;;;;;29.43;50.31;99936.31;5053159;28;20555;-88
2023/07/10 07:31:54;;;;;;;5.32;2.42;;;;;;;29.42;50.39;99946.22;5051822;28;20052;-86
2023/07/10 07:34:20;;;;;;;4.93;2.40;;;;;;;29.44;50.54;99944.25;5052798;28;20400;-86
2023/07/10 07:36:49;;;;;;;5.65;2.83;;;;;;;29.43;50.23;99937.19;5051943;28;20025;-88
2023/07/10 07:39:15;;;;;;;6.30;2.70;;;;;;;29.43;50.42;99937.19;5052885;28;20021;-87
2023/07/10 07:41:41;;;;;;;4.75;2.55;;;;;;;29.44;50.20;99938.88;5053516;28;20048;-88
2023/07/10 07:44:06;;;;;;;4.60;2.50;;;;;;;29.45;50.46;99929.81;5053657;28;20668;-87
2023/07/10 07:46:32;;;;;;;5.30;2.50;;;;;;;29.46;50.57;99933.38;5053227;28;20040;-88
2023/07/10 07:48:58;;;;;;;4.68;2.58;;;;;;;29.45;50.67;99929.81;5053409;28;20031;-86
2023/07/10 07:51:24;;;;;;;4.60;2.47;;;;;;;29.47;50.22;99927.84;5053317;28;20027;-87
2023/07/10 07:54:01;;;;;;;4.40;2.35;;;;;;;29.48;50.39;99928.72;5052002;28;20413;-87
2023/07/10 07:56:26;;;;;;;4.32;2.65;;;;;;;29.51;50.35;99927.59;5053173;28;20025;-87
2023/07/10 07:58:52;;;;;;;4.47;2.47;;;;;;;29.50;50.60;99925.91;5052024;28;20095;-86
2023/07/10 08:01:17;;;;;;;4.53;2.08;;;;;;;29.51;50.63;99930.28;5053656;28;20060;-86
2023/07/10 08:03:42;;;;;;;5.13;2.50;;;;;;;29.49;50.57;99925.06;5053248;28;20043;-88
2023/07/10 08:06:08;;;;;;;5.55;2.60;;;;;;;29.52;50.38;99934.66;5055857;28;20079;-86
2023/07/10 08:08:33;;;;;;;4.30;2.10;;;;;;;29.52;50.50;99929.28;5057375;28;20024;-88
2023/07/10 08:10:58;;;;;;;5.13;2.58;;;;;;;29.52;50.40;99922.09;5057278;28;20083;-90
2023/07/10 08:13:24;;;;;;;6.43;2.75;;;;;;;29.52;50.30;99923.91;5057060;28;20091;-89
2023/07/10 08:15:49;;;;;;;5.32;2.80;;;;;;;29.51;50.58;99920.38;5056477;28;20029;-90
2023/07/10 08:18:15;;;;;;;5.75;2.60;;;;;;;29.53;50.69;99915.72;5057111;28;20100;-90
2023/07/10 08:20:40;;;;;;;6.82;3.38;;;;;;;29.52;50.42;99919.41;5057186;28;20526;-88
2023/07/10 08:23:05;;;;;;;7.28;3.10;;;;;;;29.53;50.73;99922.94;5055542;28;20033;-90
2023/07/10 08:25:32;;;;;;;4.85;2.95;;;;;;;29.52;50.30;99918.53;5056631;28;20028;-88
2023/07/10 08:27:58;;;;;;;4.97;2.63;;;;;;;29.51;50.18;99922.22;5055469;28;20158;-90
2023/07/10 08:30:25;;;;;;;5.65;2.63;;;;;;;29.51;50.30;99916.84;5056250;28;20020;-90
2023/07/10 08:32:50;;;;;;;5.68;3.17;;;;;;;29.52;50.30;99919.41;5056828;28;20029;-88
2023/07/10 08:35:16;;;;;;;7.57;3.05;;;;;;;29.54;50.45;99913.88;5056606;28;20519;-89
2023/07/10 08:37:41;;;;;;;5.75;3.30;;;;;;;29.54;50.47;99921.97;5056622;28;20553;-88
2023/07/10 08:40:23;;;;;;;4.65;2.63;;;;;;;29.55;50.65;99912.91;5056517;28;20105;-90
2023/07/10 08:42:49;;;;;;;4.53;2.80;;;;;;;29.56;50.39;99919.97;5056049;28;20034;-88
2023/07/10 08:45:30;;;;;;;5.30;2.85;;;;;;;29.59;50.44;99915.16;5056444;28;20028;-89
2023/07/10 08:48:04;;;;;;;4.47;2.65;;;;;;;29.62;50.42;99908.66;5056020;28;20024;-89
2023/07/10 08:50:31;;;;;;;5.97;2.95;;;;;;;29.65;50.40;99912.91;5056000;28;20032;-84
2023/07/10 08:53:22;;;;;;;4.75;2.80;;;;;;;29.69;50.70;99915.16;5054592;28;20111;-86
2023/07/10 08:56:03;;;;;;;4.30;2.70;;;;;;;29.73;50.71;99910.38;5054528;28;20052;-88
2023/07/10 08:58:33;;;;;;;4.38;2.38;;;;;;;29.73;50.64;99897.75;5034554;28;20450;-87
2023/07/10 09:01:07;;;;;;;4.65;2.67;;;;;;;29.76;50.64;99898.50;5036193;28;20026;-87
2023/07/10 09:03:40;;;;;;;5.28;2.53;;;;;;;29.76;50.50;99903.88;5034254;28;20061;-86
2023/07/10 09:06:30;;;;;;;5.38;3.03;;;;;;;29.77;50.76;99895.63;5036042;28;20366;-86
2023/07/10 09:08:56;;;;;;;5.75;2.80;;;;;;;29.78;50.56;99893.81;5035440;28;20029;-84
2023/07/10 09:11:23;;;;;;;4.88;3.05;;;;;;;29.78;50.57;99896.50;5035401;28;20742;-85
2023/07/10 09:14:41;;;;;;;6.80;3.20;;;;;;;29.79;50.40;99887.44;5051039;28;20078;-89
2023/07/10 09:17:24;;;;;;;6.22;3.25;;;;;;;29.81;50.49;99882.75;5034757;28;20033;-85
2023/07/10 09:19:54;;;;;;;7.82;3.67;;;;;;;29.82;50.39;99879.09;5052348;28;20092;-84
2023/07/10 09:22:20;;;;;;;8.40;3.83;;;;;;;29.84;50.65;99886.03;5042687;28;20547;-86
2023/07/10 09:24:46;;;;;;;5.45;3.45;;;;;;;29.85;50.19;99886.88;5055342;28;20029;-87
2023/07/10 09:27:13;;;;;;;6.68;3.35;;;;;;;29.86;50.48;99872.41;5042396;28;20405;-85
2023/07/10 09:29:40;;;;;;;7.55;3.65;;;;;;;29.87;50.65;99879.50;5034721;28;20054;-84
2023/07/10 09:32:13;;;;;;;6.05;3.60;;;;;;;29.88;50.64;99875.84;5048129;28;20032;-84
2023/07/10 09:35:02;;;;;;;5.65;3.30;;;;;;;29.89;50.70;99872.16;5034467;28;20068;-87
2023/07/10 09:37:35;;;;;;;7.88;3.45;;;;;;;29.90;50.78;99873.84;5046065;28;20037;-89
2023/07/10 09:40:18;;;;;;;6.68;3.17;;;;;;;29.90;50.61;99873.84;5049884;28;20029;-86
2023/07/10 09:42:44;;;;;;;7.43;3.58;;;;;;;29.91;50.48;99870.16;5050738;28;20067;-87
2023/07/10 09:45:09;;;;;;;6.25;3.22;;;;;;;29.90;50.52;99865.78;5049514;28;20116;-89
2023/07/10 09:47:50;;;;;;;7.22;3.60;;;;;;;29.92;50.73;99861.09;5050499;28;20028;-86
2023/07/10 09:50:18;;;;;;;5.32;3.08;;;;;;;29.94;50.56;99864.50;5050098;28;20528;-86
2023/07/10 09:52:51;;;;;;;6.18;3.13;;;;;;;29.96;50.66;99864.34;5052034;28;20143;-88
2023/07/10 09:55:17;;;;;;;5.90;3.30;;;;;;;29.97;50.68;99869.59;5046268;28;20478;-85
2023/07/10 09:57:59;;;;;;;5.75;3.38;;;;;;;30.00;50.46;99860.38;5055109;28;20595;-86
2023/07/10 10:00:26;;;;;;;6.00;3.38;;;;;;;30.00;50.51;99855.84;5051907;28;20039;-85
2023/07/10 10:03:02;;;;;;;6.82;3.30;;;;;;;30.03;50.80;99852.03;5053918;28;20037;-89
2023/07/10 10:05:29;;;;;;;6.05;3.50;;;;;;;30.04;50.65;99851.03;5054121;28;20036;-87
2023/07/10 10:08:10;;;;;;;6.32;3.22;;;;;;;30.07;50.47;99857.97;5054407;28;20029;-87
2023/07/10 10:10:37;;;;;;;4.80;2.65;;;;;;;30.07;50.46;99852.59;5044455;28;20032;-85
2023/07/10 10:13:23;;;;;;;6.43;3.63;;;;;;;30.09;50.32;99856.00;5053521;28;20385;-77
2023/07/10 10:16:02;;;;;;;5.60;3.10;;;;;;;30.11;50.53;99845.97;5036836;28;20026;-85
2023/07/10 10:18:50;;;;;;;6.43;3.80;;;;;;;30.13;50.57;99852.88;5036147;28;20497;-87
2023/07/10 10:21:18;;;;;;;6.10;3.13;;;;;;;30.15;50.65;99850.03;5049451;28;20119;-84
2023/07/10 10:23:50;;;;;;;9.07;3.63;;;;;;;30.17;50.46;99850.75;5044441;28;20017;-84
2023/07/10 10:26:31;;;;;;;9.77;4.10;;;;;;;30.20;50.65;99845.06;5047943;28;20025;-82
2023/07/10 10:29:12;;;;;;;12.25;4.22;;;;;;;30.22;50.98;99840.38;5042352;28;20033;-83
2023/07/10 10:31:42;;;;;;;8.45;3.90;;;;;;;30.25;50.86;99844.63;5052025;28;20037;-81
2023/07/10 10:34:26;;;;;;;9.52;4.05;;;;;;;30.27;51.33;99848.88;5047100;28;20294;-80
2023/07/10 10:37:33;;;;;;;8.85;4.30;;;;;;;30.31;51.89;99838.66;5047365;28;20036;-85
2023/07/10 10:40:17;;;;;;;;;;;;;;;30.34;51.74;99833.00;5052416;28;20031;-87
2023/07/10 10:42:53;;;;;;;7.65;3.97;;;;;;;30.36;51.94;99832.88;5052821;28;19913;-83
2023/07/10 10:45:49;;;;;;;7.68;3.78;;;;;;;30.38;52.01;99820.94;5050392;28;20017;-84
2023/07/10 10:48:32;;;;;;;8.80;4.85;;;;;;;30.41;51.91;99822.50;5044644;28;20029;-89
2023/07/10 10:51:22;;;;;;;9.57;4.60;;;;;;;30.43;51.96;99820.50;5053481;28;20025;-88
2023/07/10 10:54:10;;;;;;;6.35;3.72;;;;;;;30.46;52.57;99814.81;5053302;28;20047;-85
2023/07/10 10:56:42;;;;;;;7.75;3.95;;;;;;;30.49;52.29;99817.22;5045541;28;20044;-90
2023/07/10 10:59:25;;;;;;;9.43;4.13;;;;;;;30.51;52.33;99812.53;5044503;28;20053;-89
2023/07/10 11:02:01;;;;;;;8.40;4.10;;;;;;;30.53;52.58;99813.25;5044500;28;20030;-88
2023/07/10 11:04:36;;;;;;;7.32;3.90;;;;;;;30.57;52.18;99807.53;5041635;28;20025;-87
2023/07/10 11:07:09;;;;;;;6.22;3.50;;;;;;;30.58;52.13;99807.41;5053643;28;20104;-86
2023/07/10 11:09:59;;;;;;;6.82;4.00;;;;;;;30.61;52.44;99795.50;5052770;28;20385;-88
2023/07/10 11:12:29;;;;;;;9.98;5.18;;;;;;;30.62;52.19;99791.78;5053595;28;20052;-88
2023/07/10 11:15:11;;;;;;;7.57;3.65;;;;;;;30.64;52.11;99789.78;5053466;28;20032;-86
2023/07/10 11:17:37;;;;;;;7.88;4.28;;;;;;;30.67;52.00;99781.41;5053294;28;20052;-89
2023/07/10 11:20:04;;;;;;;6.75;4.00;;;;;;;30.69;52.15;99787.53;5053611;28;20381;-87
2023/07/10 11:22:31;;;;;;;7.38;4.43;;;;;;;30.71;51.96;99790.94;5053236;28;20036;-87
2023/07/10 11:24:59;;;;;;;7.82;4.35;;;;;;;30.73;51.96;99777.28;5052045;28;20116;-87
2023/07/10 11:27:31;;;;;;;8.63;5.20;;;;;;;30.74;51.96;99779.84;5042807;28;20025;-86
2023/07/10 11:30:12;;;;;;;7.97;4.78;;;;;;;30.76;51.74;99775.19;5037553;28;20037;-89
2023/07/10 11:33:18;;;;;;;8.05;5.00;;;;;;;30.78;51.70;99775.84;5031678;28;20021;-80
2023/07/10 11:36:17;;;;;;;15.07;8.85;;;;;;;30.79;51.49;99772.16;5038217;28;20037;-79
2023/07/10 11:39:11;;;;;;;15.15;10.35;;;;;;;30.81;51.61;99770.16;5000303;28;20410;-81
2023/07/10 11:41:36;;;;;;;13.90;8.95;;;;;;;30.83;51.98;99766.50;5004442;28;20165;-86
2023/07/10 11:44:20;;;;;;;10.68;7.90;;;;;;;30.85;51.81;99767.16;5013839;28;20042;-87